Terminal Aerodrome Forecast
Issued by NWS

Home | Current Version | Previous Version | Text Only | Print | Product List | Glossary On
Versions: 1 2 3 4 5 6 7 8 9 10 11 12 13 14 15 16 17 18 19 20 21 22 23 24 25 26 27 28
212
FTUS41 KBUF 131728
TAFJHW
TAF
KJHW 131728Z 1318/1418 30014G22KT 1SM -SN BLSN OVC015
     FM140500 34012KT 2SM -SHSN OVC025
     FM141000 03006KT 3SM -SHSN OVC025
     FM141300 09004KT P6SM VCSH BKN035
     FM141700 23004KT P6SM SCT035
      AMD LTD TO CLD VIS AND WIND=

USA.gov is the U.S. government's official web portal to all federal, state and local government web resources and services.